sensor_id;sensor_type;location;lat;lon;timestamp;pressure;altitude;pressure_sealevel;temperature
19061;BMP280;9663;48.996;8.334;2022-12-18T00:01:36;101591.00;;;-2.43
19061;BMP280;9663;48.996;8.334;2022-12-18T00:04:07;101603.25;;;-2.46
19061;BMP280;9663;48.996;8.334;2022-12-18T00:06:40;101612.97;;;-2.49
19061;BMP280;9663;48.996;8.334;2022-12-18T00:09:05;101602.06;;;-2.51
19061;BMP280;9663;48.996;8.334;2022-12-18T00:11:31;101603.78;;;-2.50
19061;BMP280;9663;48.996;8.334;2022-12-18T00:13:59;101596.06;;;-2.41
19061;BMP280;9663;48.996;8.334;2022-12-18T00:16:27;101598.16;;;-2.47
19061;BMP280;9663;48.996;8.334;2022-12-18T00:18:59;101592.22;;;-2.49
19061;BMP280;9663;48.996;8.334;2022-12-18T00:21:27;101596.31;;;-2.50
19061;BMP280;9663;48.996;8.334;2022-12-18T00:23:53;101610.50;;;-2.49
19061;BMP280;9663;48.996;8.334;2022-12-18T00:26:28;101608.75;;;-2.50
19061;BMP280;9663;48.996;8.334;2022-12-18T00:28:58;101595.47;;;-2.50
19061;BMP280;9663;48.996;8.334;2022-12-18T00:31:25;101594.69;;;-2.49
19061;BMP280;9663;48.996;8.334;2022-12-18T00:33:51;101602.94;;;-2.50
19061;BMP280;9663;48.996;8.334;2022-12-18T00:36:25;101614.50;;;-2.51
19061;BMP280;9663;48.996;8.334;2022-12-18T00:38:54;101623.44;;;-2.53
19061;BMP280;9663;48.996;8.334;2022-12-18T00:41:20;101621.53;;;-2.56
19061;BMP280;9663;48.996;8.334;2022-12-18T00:44:07;101617.09;;;-2.60
19061;BMP280;9663;48.996;8.334;2022-12-18T00:46:33;101612.06;;;-2.62
19061;BMP280;9663;48.996;8.334;2022-12-18T00:48:59;101604.59;;;-2.62
19061;BMP280;9663;48.996;8.334;2022-12-18T00:51:25;101603.81;;;-2.61
19061;BMP280;9663;48.996;8.334;2022-12-18T00:53:52;101593.13;;;-2.60
19061;BMP280;9663;48.996;8.334;2022-12-18T00:56:22;101598.22;;;-2.58
19061;BMP280;9663;48.996;8.334;2022-12-18T00:58:48;101599.91;;;-2.57
19061;BMP280;9663;48.996;8.334;2022-12-18T01:01:14;101593.34;;;-2.57
19061;BMP280;9663;48.996;8.334;2022-12-18T01:03:39;101595.16;;;-2.55
19061;BMP280;9663;48.996;8.334;2022-12-18T01:06:10;101598.72;;;-2.51
19061;BMP280;9663;48.996;8.334;2022-12-18T01:08:37;101607.91;;;-2.50
19061;BMP280;9663;48.996;8.334;2022-12-18T01:11:13;101602.25;;;-2.48
19061;BMP280;9663;48.996;8.334;2022-12-18T01:13:40;101604.63;;;-2.49
19061;BMP280;9663;48.996;8.334;2022-12-18T01:16:06;101609.59;;;-2.49
19061;BMP280;9663;48.996;8.334;2022-12-18T01:18:32;101604.63;;;-2.49
19061;BMP280;9663;48.996;8.334;2022-12-18T01:20:58;101602.25;;;-2.48
19061;BMP280;9663;48.996;8.334;2022-12-18T01:23:26;101597.59;;;-2.43
19061;BMP280;9663;48.996;8.334;2022-12-18T01:25:52;101589.41;;;-2.42
19061;BMP280;9663;48.996;8.334;2022-12-18T01:28:18;101585.38;;;-2.40
19061;BMP280;9663;48.996;8.334;2022-12-18T01:30:43;101588.84;;;-2.38
19061;BMP280;9663;48.996;8.334;2022-12-18T01:33:09;101597.25;;;-2.36
19061;BMP280;9663;48.996;8.334;2022-12-18T01:35:42;101595.72;;;-2.34
19061;BMP280;9663;48.996;8.334;2022-12-18T01:38:08;101593.34;;;-2.33
19061;BMP280;9663;48.996;8.334;2022-12-18T01:40:34;101600.69;;;-2.34
19061;BMP280;9663;48.996;8.334;2022-12-18T01:43:00;101602.31;;;-2.35
19061;BMP280;9663;48.996;8.334;2022-12-18T01:45:30;101607.97;;;-2.37
19061;BMP280;9663;48.996;8.334;2022-12-18T01:48:06;101609.56;;;-2.38
19061;BMP280;9663;48.996;8.334;2022-12-18T01:50:40;101611.00;;;-2.41
19061;BMP280;9663;48.996;8.334;2022-12-18T01:53:13;101609.28;;;-2.42
19061;BMP280;9663;48.996;8.334;2022-12-18T01:55:53;101602.69;;;-2.42
19061;BMP280;9663;48.996;8.334;2022-12-18T01:58:24;101594.38;;;-2.42
19061;BMP280;9663;48.996;8.334;2022-12-18T02:00:54;101605.16;;;-2.42
19061;BMP280;9663;48.996;8.334;2022-12-18T02:03:20;101601.16;;;-2.40
19061;BMP280;9663;48.996;8.334;2022-12-18T02:06:00;101600.31;;;-2.40
19061;BMP280;9663;48.996;8.334;2022-12-18T02:09:14;101611.66;;;-2.44
19061;BMP280;9663;48.996;8.334;2022-12-18T02:12:07;101612.31;;;-2.46
19061;BMP280;9663;48.996;8.334;2022-12-18T02:14:43;101615.56;;;-2.47
19061;BMP280;9663;48.996;8.334;2022-12-18T02:17:18;101622.25;;;-2.46
19061;BMP280;9663;48.996;8.334;2022-12-18T02:19:52;101623.78;;;-2.48
19061;BMP280;9663;48.996;8.334;2022-12-18T02:22:35;101613.72;;;-2.50
19061;BMP280;9663;48.996;8.334;2022-12-18T02:27:52;101611.03;;;-2.53
19061;BMP280;9663;48.996;8.334;2022-12-18T02:30:21;101617.00;;;-2.51
19061;BMP280;9663;48.996;8.334;2022-12-18T02:32:52;101620.44;;;-2.49
19061;BMP280;9663;48.996;8.334;2022-12-18T02:35:26;101620.44;;;-2.49
19061;BMP280;9663;48.996;8.334;2022-12-18T02:37:56;101617.16;;;-2.48
19061;BMP280;9663;48.996;8.334;2022-12-18T02:40:26;101613.94;;;-2.47
19061;BMP280;9663;48.996;8.334;2022-12-18T02:42:52;101619.66;;;-2.48
19061;BMP280;9663;48.996;8.334;2022-12-18T02:45:18;101620.72;;;-2.44
19061;BMP280;9663;48.996;8.334;2022-12-18T02:47:48;101625.03;;;-2.42
19061;BMP280;9663;48.996;8.334;2022-12-18T02:53:33;101606.03;;;-2.41
19061;BMP280;9663;48.996;8.334;2022-12-18T02:56:05;101610.25;;;-2.40
19061;BMP280;9663;48.996;8.334;2022-12-18T02:59:16;101624.38;;;-2.39
19061;BMP280;9663;48.996;8.334;2022-12-18T03:02:39;101628.38;;;-2.41
19061;BMP280;9663;48.996;8.334;2022-12-18T03:05:37;101626.13;;;-2.38
19061;BMP280;9663;48.996;8.334;2022-12-18T03:08:10;101618.00;;;-2.36
19061;BMP280;9663;48.996;8.334;2022-12-18T03:10:47;101623.16;;;-2.33
19061;BMP280;9663;48.996;8.334;2022-12-18T03:15:58;101624.34;;;-2.28
19061;BMP280;9663;48.996;8.334;2022-12-18T03:18:56;101620.25;;;-2.27
19061;BMP280;9663;48.996;8.334;2022-12-18T03:21:35;101619.94;;;-2.32
19061;BMP280;9663;48.996;8.334;2022-12-18T03:24:06;101622.31;;;-2.33
19061;BMP280;9663;48.996;8.334;2022-12-18T03:26:35;101629.44;;;-2.38
19061;BMP280;9663;48.996;8.334;2022-12-18T03:29:16;101624.19;;;-2.42
19061;BMP280;9663;48.996;8.334;2022-12-18T03:31:51;101622.13;;;-2.48
19061;BMP280;9663;48.996;8.334;2022-12-18T03:34:32;101625.81;;;-2.54
19061;BMP280;9663;48.996;8.334;2022-12-18T03:36:59;101613.13;;;-2.58
19061;BMP280;9663;48.996;8.334;2022-12-18T03:39:25;101619.56;;;-2.60
19061;BMP280;9663;48.996;8.334;2022-12-18T03:45:41;101618.09;;;-2.70
19061;BMP280;9663;48.996;8.334;2022-12-18T03:48:34;101611.19;;;-2.74
19061;BMP280;9663;48.996;8.334;2022-12-18T03:51:10;101610.44;;;-2.73
19061;BMP280;9663;48.996;8.334;2022-12-18T03:54:00;101614.44;;;-2.75
19061;BMP280;9663;48.996;8.334;2022-12-18T03:56:33;101613.50;;;-2.77
19061;BMP280;9663;48.996;8.334;2022-12-18T03:59:02;101604.41;;;-2.76
19061;BMP280;9663;48.996;8.334;2022-12-18T04:01:35;101607.75;;;-2.76
19061;BMP280;9663;48.996;8.334;2022-12-18T04:04:03;101608.53;;;-2.77
19061;BMP280;9663;48.996;8.334;2022-12-18T04:06:31;101613.50;;;-2.77
19061;BMP280;9663;48.996;8.334;2022-12-18T04:08:58;101611.63;;;-2.79
19061;BMP280;9663;48.996;8.334;2022-12-18T04:11:24;101617.34;;;-2.80
19061;BMP280;9663;48.996;8.334;2022-12-18T04:13:50;101614.00;;;-2.81
19061;BMP280;9663;48.996;8.334;2022-12-18T04:16:15;101623.94;;;-2.81
19061;BMP280;9663;48.996;8.334;2022-12-18T04:18:41;101613.16;;;-2.81
19061;BMP280;9663;48.996;8.334;2022-12-18T04:21:07;101604.06;;;-2.81
19061;BMP280;9663;48.996;8.334;2022-12-18T04:23:32;101597.47;;;-2.80
19061;BMP280;9663;48.996;8.334;2022-12-18T04:25:58;101603.34;;;-2.80
19061;BMP280;9663;48.996;8.334;2022-12-18T04:28:24;101604.94;;;-2.80
19061;BMP280;9663;48.996;8.334;2022-12-18T04:30:49;101602.56;;;-2.79
19061;BMP280;9663;48.996;8.334;2022-12-18T04:33:15;101614.34;;;-2.76
19061;BMP280;9663;48.996;8.334;2022-12-18T04:35:42;101618.53;;;-2.75
19061;BMP280;9663;48.996;8.334;2022-12-18T04:38:08;101613.56;;;-2.75
19061;BMP280;9663;48.996;8.334;2022-12-18T04:40:36;101613.66;;;-2.74
19061;BMP280;9663;48.996;8.334;2022-12-18T04:43:03;101618.63;;;-2.74
19061;BMP280;9663;48.996;8.334;2022-12-18T04:45:32;101625.34;;;-2.73
19061;BMP280;9663;48.996;8.334;2022-12-18T04:48:00;101619.53;;;-2.73
19061;BMP280;9663;48.996;8.334;2022-12-18T04:50:26;101616.16;;;-2.74
19061;BMP280;9663;48.996;8.334;2022-12-18T04:52:52;101603.75;;;-2.74
19061;BMP280;9663;48.996;8.334;2022-12-18T04:55:18;101611.28;;;-2.72
19061;BMP280;9663;48.996;8.334;2022-12-18T04:57:44;101623.72;;;-2.72
19061;BMP280;9663;48.996;8.334;2022-12-18T05:00:10;101618.84;;;-2.71
19061;BMP280;9663;48.996;8.334;2022-12-18T05:02:36;101625.56;;;-2.70
19061;BMP280;9663;48.996;8.334;2022-12-18T05:05:02;101620.69;;;-2.68
19061;BMP280;9663;48.996;8.334;2022-12-18T05:07:28;101621.56;;;-2.68
19061;BMP280;9663;48.996;8.334;2022-12-18T05:09:53;101626.75;;;-2.65
19061;BMP280;9663;48.996;8.334;2022-12-18T05:12:19;101629.44;;;-2.62
19061;BMP280;9663;48.996;8.334;2022-12-18T05:14:45;101627.91;;;-2.60
19061;BMP280;9663;48.996;8.334;2022-12-18T05:17:10;101626.38;;;-2.58
19061;BMP280;9663;48.996;8.334;2022-12-18T05:19:37;101623.44;;;-2.53
19061;BMP280;9663;48.996;8.334;2022-12-18T05:22:03;101626.25;;;-2.48
19061;BMP280;9663;48.996;8.334;2022-12-18T05:24:29;101628.16;;;-2.44
19061;BMP280;9663;48.996;8.334;2022-12-18T05:26:54;101627.75;;;-2.39
19061;BMP280;9663;48.996;8.334;2022-12-18T05:29:20;101631.28;;;-2.35
19061;BMP280;9663;48.996;8.334;2022-12-18T05:31:46;101624.16;;;-2.31
19061;BMP280;9663;48.996;8.334;2022-12-18T05:34:11;101625.50;;;-2.23
19061;BMP280;9663;48.996;8.334;2022-12-18T05:36:37;101623.44;;;-2.17
19061;BMP280;9663;48.996;8.334;2022-12-18T05:39:03;101637.25;;;-2.09
19061;BMP280;9663;48.996;8.334;2022-12-18T05:41:28;101630.28;;;-2.02
19061;BMP280;9663;48.996;8.334;2022-12-18T05:43:54;101630.78;;;-1.94
19061;BMP280;9663;48.996;8.334;2022-12-18T05:46:20;101622.97;;;-1.87
19061;BMP280;9663;48.996;8.334;2022-12-18T05:48:45;101619.34;;;-1.79
19061;BMP280;9663;48.996;8.334;2022-12-18T05:51:14;101617.28;;;-1.73
19061;BMP280;9663;48.996;8.334;2022-12-18T05:53:41;101624.16;;;-1.70
19061;BMP280;9663;48.996;8.334;2022-12-18T05:56:16;101629.56;;;-1.64
19061;BMP280;9663;48.996;8.334;2022-12-18T05:58:42;101631.66;;;-1.57
19061;BMP280;9663;48.996;8.334;2022-12-18T06:01:18;101639.59;;;-1.49
19061;BMP280;9663;48.996;8.334;2022-12-18T06:03:45;101644.78;;;-1.46
19061;BMP280;9663;48.996;8.334;2022-12-18T06:06:16;101643.16;;;-1.46
19061;BMP280;9663;48.996;8.334;2022-12-18T06:08:43;101650.81;;;-1.43
19061;BMP280;9663;48.996;8.334;2022-12-18T06:11:08;101646.72;;;-1.42
19061;BMP280;9663;48.996;8.334;2022-12-18T06:13:34;101638.47;;;-1.41
19061;BMP280;9663;48.996;8.334;2022-12-18T06:16:04;101649.38;;;-1.39
19061;BMP280;9663;48.996;8.334;2022-12-18T06:18:30;101653.59;;;-1.38
19061;BMP280;9663;48.996;8.334;2022-12-18T06:20:56;101659.53;;;-1.36
19061;BMP280;9663;48.996;8.334;2022-12-18T06:23:22;101657.25;;;-1.33
19061;BMP280;9663;48.996;8.334;2022-12-18T06:25:48;101670.75;;;-1.30
19061;BMP280;9663;48.996;8.334;2022-12-18T06:28:14;101672.59;;;-1.27
19061;BMP280;9663;48.996;8.334;2022-12-18T06:30:39;101671.06;;;-1.26
19061;BMP280;9663;48.996;8.334;2022-12-18T06:33:05;101670.09;;;-1.27
19061;BMP280;9663;48.996;8.334;2022-12-18T06:35:32;101673.53;;;-1.26
19061;BMP280;9663;48.996;8.334;2022-12-18T06:37:57;101682.06;;;-1.22
19061;BMP280;9663;48.996;8.334;2022-12-18T06:40:23;101684.88;;;-1.18
19061;BMP280;9663;48.996;8.334;2022-12-18T06:42:49;101682.47;;;-1.16
19061;BMP280;9663;48.996;8.334;2022-12-18T06:45:14;101690.78;;;-1.16
19061;BMP280;9663;48.996;8.334;2022-12-18T06:47:40;101694.03;;;-1.17
19061;BMP280;9663;48.996;8.334;2022-12-18T06:50:09;101680.72;;;-1.17
19061;BMP280;9663;48.996;8.334;2022-12-18T06:52:34;101679.41;;;-1.12
19061;BMP280;9663;48.996;8.334;2022-12-18T06:55:00;101682.09;;;-1.09
19061;BMP280;9663;48.996;8.334;2022-12-18T06:57:26;101683.25;;;-1.04
19061;BMP280;9663;48.996;8.334;2022-12-18T06:59:51;101681.03;;;-1.00
19061;BMP280;9663;48.996;8.334;2022-12-18T07:02:17;101684.00;;;-0.92
19061;BMP280;9663;48.996;8.334;2022-12-18T07:04:43;101698.66;;;-0.84
19061;BMP280;9663;48.996;8.334;2022-12-18T07:07:08;101689.09;;;-0.78
19061;BMP280;9663;48.996;8.334;2022-12-18T07:09:34;101687.75;;;-0.73
19061;BMP280;9663;48.996;8.334;2022-12-18T07:12:00;101692.13;;;-0.69
19061;BMP280;9663;48.996;8.334;2022-12-18T07:14:25;101689.19;;;-0.64
19061;BMP280;9663;48.996;8.334;2022-12-18T07:16:51;101695.38;;;-0.57
19061;BMP280;9663;48.996;8.334;2022-12-18T07:19:17;101691.56;;;-0.52
19061;BMP280;9663;48.996;8.334;2022-12-18T07:21:42;101691.72;;;-0.49
19061;BMP280;9663;48.996;8.334;2022-12-18T07:24:08;101688.66;;;-0.45
19061;BMP280;9663;48.996;8.334;2022-12-18T07:26:33;101687.13;;;-0.43
19061;BMP280;9663;48.996;8.334;2022-12-18T07:28:59;101679.84;;;-0.41
19061;BMP280;9663;48.996;8.334;2022-12-18T07:31:25;101695.06;;;-0.36
19061;BMP280;9663;48.996;8.334;2022-12-18T07:33:52;101702.63;;;-0.35
19061;BMP280;9663;48.996;8.334;2022-12-18T07:36:18;101700.13;;;-0.35
19061;BMP280;9663;48.996;8.334;2022-12-18T07:38:48;101698.44;;;-0.36
19061;BMP280;9663;48.996;8.334;2022-12-18T07:41:14;101706.66;;;-0.37
19061;BMP280;9663;48.996;8.334;2022-12-18T07:43:41;101699.69;;;-0.42
19061;BMP280;9663;48.996;8.334;2022-12-18T07:46:09;101712.25;;;-0.41
19061;BMP280;9663;48.996;8.334;2022-12-18T07:48:35;101705.53;;;-0.42
19061;BMP280;9663;48.996;8.334;2022-12-18T07:51:03;101715.59;;;-0.40
19061;BMP280;9663;48.996;8.334;2022-12-18T07:53:30;101727.41;;;-0.38
19061;BMP280;9663;48.996;8.334;2022-12-18T07:56:05;101720.78;;;-0.37
19061;BMP280;9663;48.996;8.334;2022-12-18T07:58:32;101720.09;;;-0.35
19061;BMP280;9663;48.996;8.334;2022-12-18T08:01:10;101728.34;;;-0.36
19061;BMP280;9663;48.996;8.334;2022-12-18T08:03:38;101727.41;;;-0.38
19061;BMP280;9663;48.996;8.334;2022-12-18T08:06:07;101728.16;;;-0.39
19061;BMP280;9663;48.996;8.334;2022-12-18T08:08:34;101735.75;;;-0.37
19061;BMP280;9663;48.996;8.334;2022-12-18T08:11:01;101736.69;;;-0.35
19061;BMP280;9663;48.996;8.334;2022-12-18T08:13:27;101732.19;;;-0.28
19061;BMP280;9663;48.996;8.334;2022-12-18T08:16:07;101735.91;;;-0.21
19061;BMP280;9663;48.996;8.334;2022-12-18T08:18:37;101732.13;;;-0.15
19061;BMP280;9663;48.996;8.334;2022-12-18T08:21:16;101738.44;;;-0.07
19061;BMP280;9663;48.996;8.334;2022-12-18T08:23:44;101741.72;;;-0.08
19061;BMP280;9663;48.996;8.334;2022-12-18T08:26:13;101736.03;;;-0.05
19061;BMP280;9663;48.996;8.334;2022-12-18T08:28:40;101734.50;;;-0.03
19061;BMP280;9663;48.996;8.334;2022-12-18T08:31:07;101725.59;;;0.00
19061;BMP280;9663;48.996;8.334;2022-12-18T08:33:33;101724.63;;;-0.02
19061;BMP280;9663;48.996;8.334;2022-12-18T08:36:00;101717.03;;;-0.03
19061;BMP280;9663;48.996;8.334;2022-12-18T08:38:26;101723.00;;;-0.01
19061;BMP280;9663;48.996;8.334;2022-12-18T08:41:06;101706.84;;;0.06
19061;BMP280;9663;48.996;8.334;2022-12-18T08:43:32;101709.78;;;0.14
19061;BMP280;9663;48.996;8.334;2022-12-18T08:46:19;101696.22;;;0.23
19061;BMP280;9663;48.996;8.334;2022-12-18T08:48:45;101690.13;;;0.33
19061;BMP280;9663;48.996;8.334;2022-12-18T08:51:11;101695.47;;;0.39
19061;BMP280;9663;48.996;8.334;2022-12-18T08:53:37;101693.34;;;0.44
19061;BMP280;9663;48.996;8.334;2022-12-18T08:56:04;101691.97;;;0.49
19061;BMP280;9663;48.996;8.334;2022-12-18T08:58:30;101678.03;;;0.53
19061;BMP280;9663;48.996;8.334;2022-12-18T09:01:05;101678.31;;;0.57
19061;BMP280;9663;48.996;8.334;2022-12-18T09:03:31;101675.28;;;0.63
19061;BMP280;9663;48.996;8.334;2022-12-18T09:05:58;101668.06;;;0.67
19061;BMP280;9663;48.996;8.334;2022-12-18T09:08:25;101669.06;;;0.71
19061;BMP280;9663;48.996;8.334;2022-12-18T09:10:51;101665.28;;;0.77
19061;BMP280;9663;48.996;8.334;2022-12-18T09:13:18;101675.59;;;0.83
19061;BMP280;9663;48.996;8.334;2022-12-18T09:15:47;101682.66;;;0.90
19061;BMP280;9663;48.996;8.334;2022-12-18T09:18:14;101693.75;;;0.95
19061;BMP280;9663;48.996;8.334;2022-12-18T09:20:41;101685.69;;;0.99
19061;BMP280;9663;48.996;8.334;2022-12-18T09:23:07;101690.94;;;1.03
19061;BMP280;9663;48.996;8.334;2022-12-18T09:25:34;101699.56;;;1.08
19061;BMP280;9663;48.996;8.334;2022-12-18T09:28:04;101703.94;;;1.12
19061;BMP280;9663;48.996;8.334;2022-12-18T09:30:30;101712.47;;;1.16
19061;BMP280;9663;48.996;8.334;2022-12-18T09:32:56;101715.22;;;1.20
19061;BMP280;9663;48.996;8.334;2022-12-18T09:35:21;101728.91;;;1.27
19061;BMP280;9663;48.996;8.334;2022-12-18T09:37:47;101736.66;;;1.31
19061;BMP280;9663;48.996;8.334;2022-12-18T09:40:16;101732.72;;;1.34
19061;BMP280;9663;48.996;8.334;2022-12-18T09:42:50;101718.66;;;1.36
19061;BMP280;9663;48.996;8.334;2022-12-18T09:45:18;101718.72;;;1.38
19061;BMP280;9663;48.996;8.334;2022-12-18T09:47:47;101709.41;;;1.35
19061;BMP280;9663;48.996;8.334;2022-12-18T09:50:35;101726.06;;;1.35
19061;BMP280;9663;48.996;8.334;2022-12-18T09:53:13;101734.31;;;1.34
19061;BMP280;9663;48.996;8.334;2022-12-18T09:55:45;101731.66;;;1.31
19061;BMP280;9663;48.996;8.334;2022-12-18T10:00:55;101742.72;;;1.34
19061;BMP280;9663;48.996;8.334;2022-12-18T10:03:21;101746.06;;;1.35
19061;BMP280;9663;48.996;8.334;2022-12-18T10:06:14;101751.75;;;1.32
19061;BMP280;9663;48.996;8.334;2022-12-18T10:15:04;101746.78;;;1.18
19061;BMP280;9663;48.996;8.334;2022-12-18T10:17:58;101755.53;;;1.26
19061;BMP280;9663;48.996;8.334;2022-12-18T10:20:43;101739.78;;;1.27
19061;BMP280;9663;48.996;8.334;2022-12-18T10:23:37;101740.03;;;1.31
19061;BMP280;9663;48.996;8.334;2022-12-18T10:26:09;101731.16;;;1.36
19061;BMP280;9663;48.996;8.334;2022-12-18T10:28:39;101730.00;;;1.46
19061;BMP280;9663;48.996;8.334;2022-12-18T10:31:07;101712.28;;;1.57
19061;BMP280;9663;48.996;8.334;2022-12-18T10:33:34;101716.31;;;1.69
19061;BMP280;9663;48.996;8.334;2022-12-18T10:36:00;101721.00;;;1.79
19061;BMP280;9663;48.996;8.334;2022-12-18T10:38:31;101723.31;;;1.91
19061;BMP280;9663;48.996;8.334;2022-12-18T10:43:36;101717.53;;;2.08
19061;BMP280;9663;48.996;8.334;2022-12-18T10:48:40;101719.25;;;2.24
19061;BMP280;9663;48.996;8.334;2022-12-18T10:51:25;101715.81;;;2.22
19061;BMP280;9663;48.996;8.334;2022-12-18T10:56:24;101705.16;;;2.11
19061;BMP280;9663;48.996;8.334;2022-12-18T10:59:00;101705.25;;;2.12
19061;BMP280;9663;48.996;8.334;2022-12-18T11:01:28;101714.72;;;2.17
19061;BMP280;9663;48.996;8.334;2022-12-18T11:06:24;101711.97;;;2.29
19061;BMP280;9663;48.996;8.334;2022-12-18T11:09:04;101726.69;;;2.23
19061;BMP280;9663;48.996;8.334;2022-12-18T11:11:32;101728.88;;;2.17
19061;BMP280;9663;48.996;8.334;2022-12-18T11:14:34;101721.75;;;2.09
19061;BMP280;9663;48.996;8.334;2022-12-18T11:17:00;101724.81;;;2.03
19061;BMP280;9663;48.996;8.334;2022-12-18T11:19:37;101727.84;;;1.98
19061;BMP280;9663;48.996;8.334;2022-12-18T11:22:33;101721.81;;;1.94
19061;BMP280;9663;48.996;8.334;2022-12-18T11:25:02;101710.47;;;2.01
19061;BMP280;9663;48.996;8.334;2022-12-18T11:27:29;101705.81;;;2.07
19061;BMP280;9663;48.996;8.334;2022-12-18T11:30:13;101706.09;;;2.12
19061;BMP280;9663;48.996;8.334;2022-12-18T11:32:55;101705.63;;;2.19
19061;BMP280;9663;48.996;8.334;2022-12-18T11:35:52;101713.47;;;2.25
19061;BMP280;9663;48.996;8.334;2022-12-18T11:38:31;101697.09;;;2.32
19061;BMP280;9663;48.996;8.334;2022-12-18T11:41:47;101702.63;;;2.42
19061;BMP280;9663;48.996;8.334;2022-12-18T11:44:19;101702.56;;;2.56
19061;BMP280;9663;48.996;8.334;2022-12-18T11:46:55;101687.09;;;2.65
19061;BMP280;9663;48.996;8.334;2022-12-18T11:49:29;101685.69;;;2.70
19061;BMP280;9663;48.996;8.334;2022-12-18T11:54:42;101668.69;;;2.80
19061;BMP280;9663;48.996;8.334;2022-12-18T12:00:20;101668.53;;;2.95
19061;BMP280;9663;48.996;8.334;2022-12-18T12:03:35;101663.03;;;3.01
19061;BMP280;9663;48.996;8.334;2022-12-18T12:06:43;101656.78;;;3.11
19061;BMP280;9663;48.996;8.334;2022-12-18T12:09:47;101648.84;;;3.19
19061;BMP280;9663;48.996;8.334;2022-12-18T12:12:43;101637.59;;;3.29
19061;BMP280;9663;48.996;8.334;2022-12-18T12:15:41;101648.91;;;3.38
19061;BMP280;9663;48.996;8.334;2022-12-18T12:34:20;101653.28;;;3.25
19061;BMP280;9663;48.996;8.334;2022-12-18T12:39:40;101654.78;;;3.38
19061;BMP280;9663;48.996;8.334;2022-12-18T12:42:37;101661.22;;;3.51
19061;BMP280;9663;48.996;8.334;2022-12-18T12:45:48;101654.38;;;3.66
19061;BMP280;9663;48.996;8.334;2022-12-18T12:48:55;101646.78;;;3.83
19061;BMP280;9663;48.996;8.334;2022-12-18T12:51:34;101643.31;;;3.98
19061;BMP280;9663;48.996;8.334;2022-12-18T12:54:05;101642.97;;;4.10
19061;BMP280;9663;48.996;8.334;2022-12-18T12:57:06;101632.25;;;4.14
19061;BMP280;9663;48.996;8.334;2022-12-18T13:08:10;101613.00;;;4.33
19061;BMP280;9663;48.996;8.334;2022-12-18T13:10:41;101609.09;;;4.39
19061;BMP280;9663;48.996;8.334;2022-12-18T13:13:09;101605.03;;;4.43
19061;BMP280;9663;48.996;8.334;2022-12-18T13:15:41;101601.78;;;4.45
19061;BMP280;9663;48.996;8.334;2022-12-18T13:20:50;101588.50;;;4.48
19061;BMP280;9663;48.996;8.334;2022-12-18T13:23:35;101583.59;;;4.51
19061;BMP280;9663;48.996;8.334;2022-12-18T13:34:23;101565.94;;;4.49
19061;BMP280;9663;48.996;8.334;2022-12-18T13:36:51;101566.06;;;4.52
19061;BMP280;9663;48.996;8.334;2022-12-18T13:39:31;101565.44;;;4.58
19061;BMP280;9663;48.996;8.334;2022-12-18T13:44:36;101564.66;;;4.59
19061;BMP280;9663;48.996;8.334;2022-12-18T13:47:04;101562.81;;;4.55
19061;BMP280;9663;48.996;8.334;2022-12-18T13:49:40;101563.50;;;4.51
19061;BMP280;9663;48.996;8.334;2022-12-18T13:52:28;101561.63;;;4.47
19061;BMP280;9663;48.996;8.334;2022-12-18T13:55:00;101568.38;;;4.48
19061;BMP280;9663;48.996;8.334;2022-12-18T13:59:57;101555.13;;;4.52
19061;BMP280;9663;48.996;8.334;2022-12-18T14:02:28;101559.19;;;4.48
19061;BMP280;9663;48.996;8.334;2022-12-18T14:04:54;101555.56;;;4.42
19061;BMP280;9663;48.996;8.334;2022-12-18T14:07:26;101561.16;;;4.35
19061;BMP280;9663;48.996;8.334;2022-12-18T14:09:55;101565.88;;;4.27
19061;BMP280;9663;48.996;8.334;2022-12-18T14:12:34;101556.22;;;4.18
19061;BMP280;9663;48.996;8.334;2022-12-18T14:18:25;101559.00;;;3.84
19061;BMP280;9663;48.996;8.334;2022-12-18T14:20:52;101557.44;;;3.68
19061;BMP280;9663;48.996;8.334;2022-12-18T14:23:45;101558.50;;;3.54
19061;BMP280;9663;48.996;8.334;2022-12-18T14:26:29;101558.06;;;3.45
19061;BMP280;9663;48.996;8.334;2022-12-18T14:28:58;101558.31;;;3.32
19061;BMP280;9663;48.996;8.334;2022-12-18T14:31:31;101550.47;;;3.25
19061;BMP280;9663;48.996;8.334;2022-12-18T14:33:57;101551.78;;;3.17
19061;BMP280;9663;48.996;8.334;2022-12-18T14:36:28;101565.75;;;3.12
19061;BMP280;9663;48.996;8.334;2022-12-18T14:38:57;101563.84;;;3.06
19061;BMP280;9663;48.996;8.334;2022-12-18T14:41:25;101565.38;;;3.04
19061;BMP280;9663;48.996;8.334;2022-12-18T14:43:53;101561.88;;;3.01
19061;BMP280;9663;48.996;8.334;2022-12-18T14:49:33;101557.97;;;2.89
19061;BMP280;9663;48.996;8.334;2022-12-18T14:52:27;101552.38;;;2.77
19061;BMP280;9663;48.996;8.334;2022-12-18T14:54:53;101547.25;;;2.74
19061;BMP280;9663;48.996;8.334;2022-12-18T14:57:25;101553.69;;;2.69
19061;BMP280;9663;48.996;8.334;2022-12-18T15:00:15;101549.16;;;2.62
19061;BMP280;9663;48.996;8.334;2022-12-18T15:02:43;101543.06;;;2.57
19061;BMP280;9663;48.996;8.334;2022-12-18T15:05:31;101552.03;;;2.52
19061;BMP280;9663;48.996;8.334;2022-12-18T15:07:59;101545.84;;;2.46
19061;BMP280;9663;48.996;8.334;2022-12-18T15:10:33;101553.94;;;2.40
19061;BMP280;9663;48.996;8.334;2022-12-18T15:15:47;101556.66;;;2.27
19061;BMP280;9663;48.996;8.334;2022-12-18T15:18:17;101552.22;;;2.22
19061;BMP280;9663;48.996;8.334;2022-12-18T15:21:09;101557.72;;;2.15
19061;BMP280;9663;48.996;8.334;2022-12-18T15:23:52;101550.63;;;2.07
19061;BMP280;9663;48.996;8.334;2022-12-18T15:26:21;101555.47;;;2.04
19061;BMP280;9663;48.996;8.334;2022-12-18T15:28:53;101551.88;;;1.99
19061;BMP280;9663;48.996;8.334;2022-12-18T15:31:32;101551.72;;;1.96
19061;BMP280;9663;48.996;8.334;2022-12-18T15:34:19;101563.16;;;1.91
19061;BMP280;9663;48.996;8.334;2022-12-18T15:36:46;101549.53;;;1.86
19061;BMP280;9663;48.996;8.334;2022-12-18T15:39:12;101551.97;;;1.84
19061;BMP280;9663;48.996;8.334;2022-12-18T15:41:39;101553.47;;;1.81
19061;BMP280;9663;48.996;8.334;2022-12-18T15:44:23;101552.44;;;1.77
19061;BMP280;9663;48.996;8.334;2022-12-18T15:46:49;101553.22;;;1.76
19061;BMP280;9663;48.996;8.334;2022-12-18T15:49:15;101553.94;;;1.74
19061;BMP280;9663;48.996;8.334;2022-12-18T15:51:41;101548.13;;;1.75
19061;BMP280;9663;48.996;8.334;2022-12-18T15:54:13;101547.38;;;1.76
19061;BMP280;9663;48.996;8.334;2022-12-18T15:56:41;101545.63;;;1.75
19061;BMP280;9663;48.996;8.334;2022-12-18T15:59:25;101558.94;;;1.74
19061;BMP280;9663;48.996;8.334;2022-12-18T16:01:52;101560.56;;;1.73
19061;BMP280;9663;48.996;8.334;2022-12-18T16:04:22;101569.72;;;1.73
19061;BMP280;9663;48.996;8.334;2022-12-18T16:06:50;101562.94;;;1.70
19061;BMP280;9663;48.996;8.334;2022-12-18T16:09:17;101562.06;;;1.70
19061;BMP280;9663;48.996;8.334;2022-12-18T16:11:43;101561.03;;;1.67